Time;durP1;ratioP1;P1;durP2;ratioP2;P2;SDS_P1;SDS_P2;PMS_P1;PMS_P2;Temp;Humidity;BMP_temperature;BMP_pressure;BME280_temperature;BME280_humidity;BME280_pressure;Samples;Min_cycle;Max_cycle;Signal;HPM_P1;HPM_P2
2023/10/19 00:03:51;;;;;;;7.38;6.68;;;;;;;12.99;86.06;98407.00;10350486;28;20053;-54
2023/10/19 00:08:52;;;;;;;7.63;6.93;;;;;;;12.96;87.01;98394.81;10350425;28;20099;-55
2023/10/19 00:13:54;;;;;;;6.60;6.00;;;;;;;12.99;87.23;98402.47;10352478;28;20106;-54
2023/10/19 00:18:59;;;;;;;6.85;6.15;;;;;;;13.00;87.63;98393.44;10351650;28;20072;-53
2023/10/19 00:24:04;;;;;;;6.78;6.18;;;;;;;13.05;87.75;98396.38;10348975;28;20053;-55
2023/10/19 00:29:30;;;;;;;6.57;5.88;;;;;;;13.09;87.86;98391.50;10351817;28;20054;-54
2023/10/19 00:34:28;;;;;;;7.35;6.65;;;;;;;13.09;87.73;98396.84;10350623;28;20581;-55
2023/10/19 00:39:41;;;;;;;7.18;6.47;;;;;;;13.08;88.16;98396.00;10345236;28;20052;-55
2023/10/19 00:44:42;;;;;;;7.82;7.20;;;;;;;13.05;89.33;98385.69;10352192;28;20078;-55
2023/10/19 00:49:48;;;;;;;8.07;7.35;;;;;;;13.04;89.34;98373.34;10354011;28;20066;-56
2023/10/19 00:54:52;;;;;;;7.80;7.10;;;;;;;13.02;89.24;98363.88;10348321;28;20053;-56
2023/10/19 01:00:00;;;;;;;7.68;6.97;;;;;;;13.06;89.28;98359.81;10346435;28;20037;-56
2023/10/19 01:05:05;;;;;;;7.53;6.82;;;;;;;13.07;89.09;98356.94;10349018;28;20683;-54
2023/10/19 01:10:11;;;;;;;8.48;6.70;;;;;;;13.16;89.06;98357.69;10353811;28;20049;-55
2023/10/19 01:15:17;;;;;;;7.63;6.93;;;;;;;13.15;89.75;98348.03;10352252;28;20077;-54
2023/10/19 01:25:34;;;;;;;7.22;6.53;;;;;;;13.15;89.65;98341.84;10348094;28;20491;-56
2023/10/19 01:30:38;;;;;;;7.40;6.70;;;;;;;13.14;90.14;98329.53;10353621;28;20064;-56
2023/10/19 01:41:18;;;;;;;7.05;6.45;;;;;;;13.20;90.52;98344.78;10340523;28;20057;-55
2023/10/19 01:46:23;;;;;;;7.05;6.35;;;;;;;13.15;90.20;98325.81;10345685;28;20050;-55
2023/10/19 01:51:26;;;;;;;8.30;7.50;;;;;;;13.20;90.61;98326.91;10343554;28;20717;-56
2023/10/19 01:56:29;;;;;;;7.43;6.73;;;;;;;13.20;90.56;98324.25;10354522;28;20071;-55
2023/10/19 02:01:32;;;;;;;6.75;6.15;;;;;;;13.16;90.74;98314.94;10357558;28;20639;-56
2023/10/19 02:06:38;;;;;;;6.95;6.35;;;;;;;13.25;90.82;98313.00;10361192;28;20056;-56
2023/10/19 02:11:45;;;;;;;7.28;6.57;;;;;;;13.25;90.64;98311.13;10360168;28;20056;-55
2023/10/19 02:16:59;;;;;;;6.95;6.43;;;;;;;13.24;91.33;98295.28;10359250;28;20073;-55
2023/10/19 02:22:08;;;;;;;8.13;7.13;;;;;;;13.26;91.09;98295.94;10358092;28;20096;-56
2023/10/19 02:27:10;;;;;;;6.38;5.82;;;;;;;13.34;90.91;98301.19;10359827;28;20042;-56
2023/10/19 02:32:27;;;;;;;6.78;6.18;;;;;;;13.31;91.25;98284.69;10354150;28;20049;-55
2023/10/19 02:37:28;;;;;;;12.02;8.23;;;;;;;13.39;91.42;98288.13;10359929;28;20418;-54
2023/10/19 02:42:31;;;;;;;8.13;7.05;;;;;;;13.37;91.33;98284.78;10352275;28;20095;-56
2023/10/19 02:47:32;;;;;;;7.88;7.18;;;;;;;13.37;91.21;98271.41;10354948;28;20092;-55
2023/10/19 02:52:34;;;;;;;8.45;7.68;;;;;;;13.37;91.68;98263.41;10354375;28;20745;-55
2023/10/19 02:57:37;;;;;;;7.95;7.18;;;;;;;13.42;91.72;98258.34;10358472;28;20056;-55
2023/10/19 03:02:39;;;;;;;7.45;6.78;;;;;;;13.33;91.39;98254.09;10357885;28;20046;-55
2023/10/19 03:07:44;;;;;;;7.80;7.05;;;;;;;13.48;91.66;98255.91;10357931;28;20045;-54
2023/10/19 03:12:46;;;;;;;6.60;6.00;;;;;;;13.50;91.71;98264.56;10355419;28;20116;-55
2023/10/19 03:17:48;;;;;;;8.35;7.50;;;;;;;13.51;91.73;98266.22;10355963;28;20057;-55
2023/10/19 03:22:51;;;;;;;8.60;7.85;;;;;;;13.40;92.10;98244.31;10352287;28;20594;-55
2023/10/19 03:27:54;;;;;;;9.57;8.60;;;;;;;13.50;92.31;98256.56;10353092;28;20053;-55
2023/10/19 03:32:59;;;;;;;8.70;7.90;;;;;;;13.49;92.37;98262.91;10354005;28;20081;-55
2023/10/19 03:38:07;;;;;;;9.25;8.35;;;;;;;13.43;92.56;98243.94;10361121;28;20053;-55
2023/10/19 03:43:21;;;;;;;8.57;7.78;;;;;;;13.47;92.95;98233.72;10355270;28;20510;-55
2023/10/19 03:48:26;;;;;;;8.97;8.13;;;;;;;13.40;93.15;98222.94;10357453;28;20155;-55
2023/10/19 03:53:28;;;;;;;9.32;8.43;;;;;;;13.35;93.01;98209.34;10357199;28;20060;-55
2023/10/19 03:58:30;;;;;;;8.95;8.13;;;;;;;13.48;93.02;98226.50;10365786;28;20106;-55
2023/10/19 04:03:32;;;;;;;9.82;8.40;;;;;;;13.52;92.96;98219.75;10359848;28;20048;-57
2023/10/19 04:08:37;;;;;;;10.13;9.13;;;;;;;13.56;92.88;98218.38;10358421;28;20049;-56
2023/10/19 04:13:38;;;;;;;9.52;8.65;;;;;;;13.55;92.80;98216.72;10340078;28;21507;-56
2023/10/19 04:18:43;;;;;;;9.45;8.50;;;;;;;13.43;93.28;98205.69;10354530;28;20057;-56
2023/10/19 04:23:46;;;;;;;9.13;8.23;;;;;;;13.55;93.15;98198.81;10349122;28;20068;-55
2023/10/19 04:28:50;;;;;;;10.35;9.05;;;;;;;13.57;93.12;98190.59;10353245;28;20057;-56
2023/10/19 04:33:54;;;;;;;8.48;7.70;;;;;;;13.57;92.91;98174.56;10353024;28;20067;-56
2023/10/19 04:38:56;;;;;;;10.15;9.18;;;;;;;13.57;93.13;98169.22;10354089;28;20061;-56
2023/10/19 04:43:58;;;;;;;10.90;9.90;;;;;;;13.56;94.00;98162.25;10355256;28;20060;-59
2023/10/19 04:49:00;;;;;;;8.98;8.07;;;;;;;13.48;93.68;98173.06;10356839;28;20052;-56
2023/10/19 04:54:02;;;;;;;8.55;7.78;;;;;;;13.52;93.98;98177.00;10346335;28;20588;-54
2023/10/19 04:59:04;;;;;;;9.73;8.82;;;;;;;13.53;94.22;98187.50;10353146;28;20065;-56
2023/10/19 05:04:07;;;;;;;10.82;9.73;;;;;;;13.57;94.49;98190.59;10350953;28;20186;-56
2023/10/19 05:09:09;;;;;;;10.68;9.70;;;;;;;13.54;94.44;98183.81;10348913;28;20144;-56
2023/10/19 05:14:13;;;;;;;10.38;9.38;;;;;;;13.57;95.37;98188.78;10345403;28;20056;-55
2023/10/19 05:19:15;;;;;;;13.52;12.48;;;;;;;13.59;94.88;98199.28;10340917;28;20053;-55
2023/10/19 05:24:17;;;;;;;9.93;8.93;;;;;;;13.52;94.66;98174.31;10343315;28;20061;-55
2023/10/19 05:29:20;;;;;;;23.70;21.73;;;;;;;13.54;94.68;98169.59;10344055;28;20538;-56
2023/10/19 05:34:23;;;;;;;12.35;10.10;;;;;;;13.63;95.00;98176.50;10343048;28;20088;-56
2023/10/19 05:39:27;;;;;;;10.38;9.48;;;;;;;13.58;95.45;98157.50;10342489;28;20080;-55
2023/10/19 05:44:30;;;;;;;11.25;9.90;;;;;;;13.67;95.36;98177.72;10339289;28;20084;-56
2023/10/19 05:49:32;;;;;;;12.43;11.30;;;;;;;13.69;95.66;98173.03;10349191;28;20057;-56
2023/10/19 05:54:34;;;;;;;12.18;10.98;;;;;;;13.70;95.70;98169.31;10342372;28;20053;-56
2023/10/19 05:59:36;;;;;;;11.13;10.02;;;;;;;13.71;95.77;98160.28;10341317;28;20745;-56
2023/10/19 06:04:38;;;;;;;12.32;10.75;;;;;;;13.76;95.80;98171.22;10338037;28;20053;-55
2023/10/19 06:09:40;;;;;;;12.10;10.80;;;;;;;13.78;95.77;98181.72;10339551;28;20091;-56
2023/10/19 06:14:41;;;;;;;12.05;10.85;;;;;;;13.76;95.73;98171.22;10341249;28;20056;-56
2023/10/19 06:19:43;;;;;;;12.05;10.85;;;;;;;13.75;95.71;98164.22;10337686;28;20054;-56
2023/10/19 06:24:44;;;;;;;13.70;11.77;;;;;;;13.75;95.78;98171.41;10341406;28;21564;-55
2023/10/19 06:29:46;;;;;;;13.82;12.43;;;;;;;13.84;96.28;98167.59;10340849;28;20108;-56
2023/10/19 06:34:48;;;;;;;16.35;14.50;;;;;;;13.87;96.31;98175.22;10339363;28;20061;-56
2023/10/19 06:39:51;;;;;;;14.45;13.07;;;;;;;13.86;96.29;98170.06;10348272;28;20064;-55
2023/10/19 06:44:55;;;;;;;15.10;13.48;;;;;;;13.90;96.77;98179.31;10345997;28;20388;-56
2023/10/19 06:49:57;;;;;;;;;;;;;;;13.93;97.25;98186.97;10349162;28;20065;-56
2023/10/19 06:54:58;;;;;;;14.75;13.25;;;;;;;13.87;96.96;98179.72;10338935;28;19937;-60
2023/10/19 07:00:10;;;;;;;16.67;14.98;;;;;;;13.94;96.93;98192.09;10345459;28;20049;-56
2023/10/19 07:05:18;;;;;;;17.08;14.75;;;;;;;13.95;96.81;98182.25;10350414;28;20071;-56
2023/10/19 07:10:20;;;;;;;16.23;14.50;;;;;;;13.95;97.60;98176.91;10354498;28;20140;-55
2023/10/19 07:15:23;;;;;;;17.85;15.75;;;;;;;13.97;97.52;98173.00;10356075;28;20524;-56
2023/10/19 07:20:25;;;;;;;21.23;14.85;;;;;;;13.94;97.43;98170.72;10351518;28;20068;-56
2023/10/19 07:25:27;;;;;;;18.17;16.13;;;;;;;14.01;97.90;98173.44;10344623;28;20053;-56
2023/10/19 07:30:30;;;;;;;17.50;13.68;;;;;;;14.00;97.39;98174.47;10345947;28;20236;-56
2023/10/19 07:35:38;;;;;;;20.88;16.60;;;;;;;14.03;97.71;98171.38;10345641;28;20434;-56
2023/10/19 07:40:40;;;;;;;21.58;15.93;;;;;;;14.06;97.64;98162.16;10347894;28;20338;-57
2023/10/19 07:45:42;;;;;;;20.05;15.00;;;;;;;14.17;97.53;98168.78;10345862;28;20069;-55
2023/10/19 07:50:44;;;;;;;23.27;17.20;;;;;;;14.15;97.92;98177.03;10342132;28;20116;-55
2023/10/19 07:55:46;;;;;;;24.15;16.35;;;;;;;14.17;98.68;98179.50;10342069;28;20111;-56
2023/10/19 08:00:48;;;;;;;24.25;18.52;;;;;;;14.19;98.94;98177.47;10343852;28;20053;-56
2023/10/19 08:05:49;;;;;;;20.08;15.93;;;;;;;14.03;98.77;98150.00;10341984;28;20049;-55
2023/10/19 08:10:51;;;;;;;20.65;18.45;;;;;;;14.28;98.42;98176.28;10343628;28;20169;-54
2023/10/19 08:15:53;;;;;;;24.95;19.85;;;;;;;14.37;98.56;98175.06;10342435;28;20132;-56
2023/10/19 08:20:54;;;;;;;23.67;20.67;;;;;;;14.35;100.00;98171.75;10339975;28;20239;-56
2023/10/19 08:25:56;;;;;;;23.10;19.95;;;;;;;14.33;99.92;98160.44;10336643;28;20046;-56
2023/10/19 08:31:01;;;;;;;21.88;19.08;;;;;;;14.36;100.00;98156.53;10334962;28;20572;-57
2023/10/19 08:36:04;;;;;;;22.25;19.25;;;;;;;14.27;100.00;98137.16;10337619;28;20147;-55
2023/10/19 08:41:06;;;;;;;23.77;20.13;;;;;;;14.47;100.00;98188.94;10337394;28;20151;-57
2023/10/19 08:46:08;;;;;;;26.45;20.85;;;;;;;14.46;100.00;98191.81;10340052;28;20059;-57
2023/10/19 08:51:10;;;;;;;27.20;22.70;;;;;;;14.53;100.00;98183.78;10343819;28;20057;-57
2023/10/19 08:56:13;;;;;;;28.42;21.98;;;;;;;14.49;100.00;98173.47;10343987;28;20060;-56
2023/10/19 09:01:19;;;;;;;24.80;20.75;;;;;;;14.54;100.00;98169.38;10336897;28;20069;-58
2023/10/19 09:06:21;;;;;;;23.08;18.25;;;;;;;14.52;100.00;98131.25;10338967;28;20058;-57
2023/10/19 09:11:24;;;;;;;23.50;18.85;;;;;;;14.54;100.00;98131.91;10339239;28;20294;-57
2023/10/19 09:16:26;;;;;;;26.48;21.38;;;;;;;14.64;100.00;98149.25;10341092;28;20184;-57
2023/10/19 09:21:28;;;;;;;26.05;21.80;;;;;;;14.67;99.77;98143.50;10334332;28;20276;-55
2023/10/19 09:26:30;;;;;;;31.30;26.27;;;;;;;14.70;100.00;98142.28;10335673;28;20403;-55
2023/10/19 09:31:31;;;;;;;30.63;23.27;;;;;;;14.65;100.00;98134.03;10331568;28;21498;-58
2023/10/19 09:36:34;;;;;;;30.30;24.52;;;;;;;14.63;100.00;98115.47;10338330;28;20046;-57
2023/10/19 09:41:36;;;;;;;27.25;23.73;;;;;;;14.75;100.00;98118.41;10338351;28;20505;-57
2023/10/19 09:46:40;;;;;;;31.98;23.15;;;;;;;14.85;100.00;98128.72;10338450;28;20236;-58
2023/10/19 09:51:43;;;;;;;;;;;;;;;14.87;100.00;98110.59;10338148;28;20065;-57
2023/10/19 09:57:12;;;;;;;32.60;24.13;;;;;;;14.93;100.00;98119.66;10337178;28;19936;-56
2023/10/19 10:02:17;;;;;;;29.60;22.02;;;;;;;14.95;100.00;98107.72;10334865;28;20103;-57
2023/10/19 10:07:20;;;;;;;31.08;24.52;;;;;;;14.99;100.00;98108.13;10337349;28;20519;-57
2023/10/19 10:12:41;;;;;;;30.38;24.40;;;;;;;15.05;100.00;98107.31;10337979;28;20755;-57
2023/10/19 10:17:49;;;;;;;25.98;21.75;;;;;;;15.12;100.00;98092.06;10343185;28;20053;-57
2023/10/19 10:23:16;;;;;;;25.60;22.45;;;;;;;15.22;100.00;98101.56;10340380;28;20081;-57
2023/10/19 10:28:19;;;;;;;31.52;23.38;;;;;;;15.24;100.00;98080.72;10340552;28;20189;-56
2023/10/19 10:33:51;;;;;;;29.63;21.80;;;;;;;15.40;100.00;98107.09;10343743;28;20177;-56
2023/10/19 10:39:04;;;;;;;29.95;22.65;;;;;;;15.43;100.00;98097.84;10343004;28;20142;-57
2023/10/19 10:44:06;;;;;;;25.10;22.13;;;;;;;15.45;100.00;98085.88;10344301;28;20057;-56
2023/10/19 10:49:09;;;;;;;27.40;22.27;;;;;;;15.55;100.00;98099.69;10345777;28;20049;-56
2023/10/19 10:54:13;;;;;;;23.40;20.77;;;;;;;15.60;100.00;98098.22;10341693;28;20496;-55
2023/10/19 10:59:15;;;;;;;23.77;20.73;;;;;;;15.58;100.00;98101.13;10351485;28;20516;-57
2023/10/19 11:04:16;;;;;;;28.08;22.42;;;;;;;15.72;100.00;98093.88;10345703;28;20797;-57
2023/10/19 11:09:19;;;;;;;29.02;23.60;;;;;;;15.79;100.00;98101.94;10344587;28;20827;-56
2023/10/19 11:14:24;;;;;;;34.53;25.33;;;;;;;15.59;100.00;98092.03;10343141;28;20053;-57
2023/10/19 11:19:39;;;;;;;35.90;25.52;;;;;;;15.40;100.00;98096.38;10342349;28;20453;-56
2023/10/19 11:24:41;;;;;;;32.40;25.27;;;;;;;15.59;100.00;98083.19;10340697;28;20043;-58
2023/10/19 11:29:59;;;;;;;33.60;27.33;;;;;;;15.77;100.00;98072.63;10336946;28;20157;-58
2023/10/19 11:35:01;;;;;;;34.75;25.30;;;;;;;15.74;100.00;98060.44;10347278;28;20092;-57
2023/10/19 11:40:04;;;;;;;32.03;26.30;;;;;;;15.76;100.00;98062.91;10337593;28;21090;-58
2023/10/19 11:45:06;;;;;;;31.03;25.67;;;;;;;15.83;100.00;98057.56;10340880;28;20235;-58
2023/10/19 11:50:08;;;;;;;31.58;24.50;;;;;;;15.90;100.00;98045.78;10342868;28;20076;-58
2023/10/19 11:55:10;;;;;;;32.33;25.85;;;;;;;15.68;100.00;98025.59;10342842;28;20041;-57
2023/10/19 12:00:21;;;;;;;35.85;26.00;;;;;;;15.92;100.00;98037.53;10343989;28;20154;-57
2023/10/19 12:05:23;;;;;;;28.80;23.33;;;;;;;16.00;100.00;98039.13;10337592;28;20057;-57
2023/10/19 12:10:32;;;;;;;29.63;24.23;;;;;;;15.99;100.00;98021.38;10341077;28;20053;-58
2023/10/19 12:15:34;;;;;;;28.42;24.08;;;;;;;16.02;100.00;98004.88;10338646;28;21768;-58
2023/10/19 12:20:35;;;;;;;28.75;24.80;;;;;;;16.21;100.00;98020.06;10340927;28;20147;-58
2023/10/19 12:25:38;;;;;;;28.08;22.80;;;;;;;16.26;100.00;98017.56;10340291;28;20057;-54
2023/10/19 12:30:57;;;;;;;29.60;23.73;;;;;;;16.19;100.00;98019.44;10337963;28;20480;-59
2023/10/19 12:35:59;;;;;;;30.00;24.23;;;;;;;16.21;100.00;98022.75;10340639;28;20429;-58
2023/10/19 12:41:01;;;;;;;28.75;24.55;;;;;;;16.19;100.00;98016.75;10342783;28;20048;-58
2023/10/19 12:46:02;;;;;;;29.73;24.50;;;;;;;16.25;100.00;98001.66;10338957;28;20217;-58
2023/10/19 12:51:06;;;;;;;30.65;23.20;;;;;;;16.24;100.00;97992.78;10339657;28;20100;-56
2023/10/19 12:56:10;;;;;;;30.63;23.77;;;;;;;16.31;100.00;97998.13;10336128;28;20949;-55
2023/10/19 13:01:18;;;;;;;26.17;22.60;;;;;;;16.26;100.00;97981.84;10336719;28;20084;-56
2023/10/19 13:06:20;;;;;;;28.98;22.77;;;;;;;16.26;100.00;97979.16;10340342;28;20386;-58
2023/10/19 13:11:22;;;;;;;30.27;23.05;;;;;;;16.28;100.00;97974.38;10339188;28;20655;-57
2023/10/19 13:16:25;;;;;;;28.00;23.73;;;;;;;15.99;100.00;97940.88;10338399;28;20077;-55
2023/10/19 13:21:32;;;;;;;26.92;22.30;;;;;;;16.20;100.00;97969.28;10339045;28;20536;-56
2023/10/19 13:26:34;;;;;;;25.20;21.30;;;;;;;16.30;100.00;97963.44;10330655;28;20056;-56
2023/10/19 13:31:35;;;;;;;30.50;23.30;;;;;;;16.35;100.00;97967.13;10330129;28;20081;-56
2023/10/19 13:36:38;;;;;;;30.40;23.60;;;;;;;16.36;100.00;97970.63;10334552;28;20681;-56
2023/10/19 13:41:40;;;;;;;28.75;23.13;;;;;;;16.35;100.00;97951.00;10336370;28;20061;-57
2023/10/19 13:46:41;;;;;;;27.25;22.50;;;;;;;16.34;100.00;97970.03;10339542;28;20425;-57
2023/10/19 13:51:43;;;;;;;26.58;22.95;;;;;;;16.35;100.00;97966.28;10351260;28;20151;-57
2023/10/19 13:56:46;;;;;;;33.20;25.85;;;;;;;16.36;100.00;97962.56;10344716;28;20106;-56
2023/10/19 14:01:48;;;;;;;31.38;24.30;;;;;;;16.41;100.00;97962.75;10349608;28;20080;-56
2023/10/19 14:06:50;;;;;;;33.80;26.20;;;;;;;16.43;100.00;97963.34;10346194;28;20053;-59
2023/10/19 14:11:53;;;;;;;33.63;26.08;;;;;;;16.36;100.00;97951.81;10345782;28;20656;-58
2023/10/19 14:16:54;;;;;;;33.00;25.70;;;;;;;16.39;100.00;97946.03;10343790;28;20077;-57
2023/10/19 14:21:56;;;;;;;31.10;24.63;;;;;;;16.40;100.00;97937.75;10345414;28;20147;-57
2023/10/19 14:26:59;;;;;;;31.40;23.50;;;;;;;16.45;100.00;97937.09;10344488;28;20062;-57
2023/10/19 14:32:01;;;;;;;28.27;22.98;;;;;;;16.47;100.00;97929.66;10340967;28;20485;-57
2023/10/19 14:37:03;;;;;;;25.80;21.67;;;;;;;16.50;100.00;97926.53;10343549;28;20624;-57
2023/10/19 14:42:04;;;;;;;25.85;21.55;;;;;;;16.48;100.00;97915.16;10339902;28;20053;-57
2023/10/19 14:47:06;;;;;;;27.67;21.08;;;;;;;16.45;100.00;97904.88;10328286;28;20562;-57
2023/10/19 14:52:07;;;;;;;27.42;22.05;;;;;;;16.53;100.00;97899.25;10339406;28;20246;-55
2023/10/19 14:57:09;;;;;;;26.00;22.27;;;;;;;16.52;100.00;97891.41;10342322;28;20049;-59
2023/10/19 15:02:12;;;;;;;26.48;22.02;;;;;;;16.49;100.00;97871.19;10342076;28;20426;-56
2023/10/19 15:07:14;;;;;;;21.20;17.10;;;;;;;16.50;100.00;97870.16;10336464;28;20057;-56
2023/10/19 15:12:15;;;;;;;20.90;15.27;;;;;;;16.49;100.00;97857.75;10344517;28;20056;-57
2023/10/19 15:17:17;;;;;;;17.35;14.32;;;;;;;16.45;100.00;97843.13;10344966;28;20102;-56
2023/10/19 15:22:19;;;;;;;17.73;12.25;;;;;;;16.46;100.00;97817.91;10352514;28;20129;-56
2023/10/19 15:27:20;;;;;;;15.75;13.73;;;;;;;16.54;100.00;97798.84;10351644;28;20158;-58
2023/10/19 15:32:23;;;;;;;13.13;10.77;;;;;;;16.37;100.00;97766.38;10340749;28;20120;-58
2023/10/19 15:37:25;;;;;;;15.52;11.35;;;;;;;16.51;100.00;97780.47;10339987;28;20084;-58
2023/10/19 15:42:26;;;;;;;13.57;12.18;;;;;;;16.56;100.00;97772.59;10340141;28;20155;-57
2023/10/19 15:47:28;;;;;;;12.25;10.88;;;;;;;16.59;100.00;97769.44;10339487;28;20170;-56
2023/10/19 15:52:31;;;;;;;11.80;10.57;;;;;;;16.63;100.00;97756.38;10334999;28;20199;-56
2023/10/19 15:57:33;;;;;;;8.70;7.60;;;;;;;16.61;100.00;97729.75;10341549;28;20147;-58
2023/10/19 16:02:35;;;;;;;9.55;7.40;;;;;;;16.65;100.00;97713.19;10344365;28;20116;-58
2023/10/19 16:07:37;;;;;;;8.55;7.30;;;;;;;16.57;100.00;97691.00;10338897;28;20150;-57
2023/10/19 16:12:39;;;;;;;9.98;7.75;;;;;;;16.58;100.00;97703.34;10336944;28;20566;-57
2023/10/19 16:17:43;;;;;;;8.73;7.82;;;;;;;16.51;100.00;97728.63;10328646;28;20068;-59
2023/10/19 16:22:46;;;;;;;9.50;7.20;;;;;;;16.50;100.00;97717.09;10349030;28;20049;-59
2023/10/19 16:27:48;;;;;;;8.48;7.63;;;;;;;16.45;100.00;97751.81;10346532;28;20069;-60
2023/10/19 16:32:50;;;;;;;7.78;6.97;;;;;;;16.41;100.00;97798.97;10351972;28;20117;-59
2023/10/19 16:37:51;;;;;;;8.50;7.70;;;;;;;16.38;100.00;97794.06;10346207;28;20053;-58
2023/10/19 16:42:53;;;;;;;10.93;9.23;;;;;;;16.39;100.00;97779.56;10347930;28;20041;-58
2023/10/19 16:47:54;;;;;;;9.00;7.68;;;;;;;16.37;100.00;97754.81;10343858;28;20049;-58
2023/10/19 16:52:56;;;;;;;10.43;7.72;;;;;;;16.37;100.00;97773.59;10349895;28;20060;-58
2023/10/19 16:57:59;;;;;;;10.32;8.02;;;;;;;16.26;100.00;97761.75;10345586;28;20053;-58
2023/10/19 17:03:00;;;;;;;9.10;8.20;;;;;;;16.31;100.00;97772.63;10350873;28;20069;-58
2023/10/19 17:08:02;;;;;;;9.00;8.07;;;;;;;16.30;100.00;97780.91;10355234;28;20742;-58
2023/10/19 17:13:04;;;;;;;10.45;9.45;;;;;;;16.29;100.00;97773.88;10355932;28;20060;-58
2023/10/19 17:18:07;;;;;;;10.10;8.88;;;;;;;16.30;100.00;97797.81;10351375;28;20760;-58
2023/10/19 17:23:09;;;;;;;10.93;8.90;;;;;;;16.29;100.00;97798.88;10349188;28;20929;-59
2023/10/19 17:28:11;;;;;;;10.07;9.07;;;;;;;16.27;100.00;97782.16;10353802;28;20049;-59
2023/10/19 17:33:13;;;;;;;9.93;8.02;;;;;;;16.26;100.00;97775.97;10354773;28;21436;-59
2023/10/19 17:38:14;;;;;;;9.70;8.80;;;;;;;16.31;100.00;97786.03;10351634;28;20429;-59
2023/10/19 17:43:16;;;;;;;11.98;10.80;;;;;;;16.31;100.00;97783.38;10354688;28;20125;-58
2023/10/19 17:48:17;;;;;;;11.07;9.98;;;;;;;16.32;100.00;97765.38;10349230;28;20064;-58
2023/10/19 17:53:19;;;;;;;9.23;7.50;;;;;;;16.34;100.00;97760.63;10352791;28;20213;-59
2023/10/19 17:58:20;;;;;;;8.70;7.75;;;;;;;16.32;100.00;97758.16;10348886;28;20211;-59
2023/10/19 18:03:24;;;;;;;9.13;7.18;;;;;;;16.34;100.00;97755.25;10352604;28;20069;-59
2023/10/19 18:08:27;;;;;;;7.18;6.47;;;;;;;16.36;100.00;97766.59;10351743;28;20088;-58
2023/10/19 18:13:31;;;;;;;8.55;6.95;;;;;;;16.29;100.00;97757.78;10347647;28;20613;-59
2023/10/19 18:18:32;;;;;;;7.50;5.47;;;;;;;16.34;100.00;97771.38;10343636;28;20088;-60
2023/10/19 18:23:34;;;;;;;7.40;6.70;;;;;;;16.37;100.00;97787.03;10348278;28;20592;-61
2023/10/19 18:28:38;;;;;;;7.63;6.85;;;;;;;16.36;100.00;97786.22;10351328;28;20156;-60
2023/10/19 18:33:39;;;;;;;8.50;7.30;;;;;;;16.18;100.00;97759.31;10352118;28;20177;-59
2023/10/19 18:38:42;;;;;;;8.83;6.47;;;;;;;16.31;100.00;97766.44;10352062;28;20092;-59
2023/10/19 18:43:44;;;;;;;10.35;7.43;;;;;;;16.40;100.00;97749.00;10334286;28;20700;-60
2023/10/19 18:48:46;;;;;;;8.80;6.55;;;;;;;16.40;100.00;97740.94;10349382;28;20119;-58
2023/10/19 18:53:47;;;;;;;9.63;7.80;;;;;;;16.41;100.00;97723.81;10353188;28;20065;-59
2023/10/19 18:58:49;;;;;;;9.25;8.00;;;;;;;16.40;100.00;97716.78;10355918;28;20218;-60
2023/10/19 19:03:51;;;;;;;8.20;7.35;;;;;;;16.38;100.00;97710.84;10335421;28;20176;-59
2023/10/19 19:08:52;;;;;;;7.65;6.72;;;;;;;16.36;100.00;97707.53;10351527;28;20175;-60
2023/10/19 19:13:55;;;;;;;8.48;7.25;;;;;;;16.39;100.00;97691.81;10353645;28;20109;-58
2023/10/19 19:18:56;;;;;;;7.32;6.60;;;;;;;16.38;100.00;97687.47;10349996;28;20171;-59
2023/10/19 19:23:58;;;;;;;7.50;6.70;;;;;;;16.38;100.00;97692.03;10349372;28;20684;-59
2023/10/19 19:29:00;;;;;;;7.07;6.47;;;;;;;16.31;100.00;97677.88;10351865;28;21108;-59
2023/10/19 19:34:02;;;;;;;6.55;5.95;;;;;;;16.36;100.00;97688.75;10348966;28;20389;-58
2023/10/19 19:39:04;;;;;;;6.93;6.32;;;;;;;16.31;100.00;97702.84;10342942;28;20575;-59
2023/10/19 19:44:08;;;;;;;6.45;5.85;;;;;;;16.28;100.00;97692.53;10346729;28;20041;-59
2023/10/19 19:49:13;;;;;;;6.28;5.80;;;;;;;16.31;100.00;97700.16;10348436;28;20080;-59
2023/10/19 19:54:15;;;;;;;;;;;;;;;16.30;100.00;97689.63;10345095;28;20060;-58
2023/10/19 19:59:17;;;;;;;6.70;6.10;;;;;;;16.22;100.00;97680.81;10338597;28;20823;-59
2023/10/19 20:04:18;;;;;;;7.80;7.00;;;;;;;16.29;100.00;97687.97;10344008;28;20049;-58
2023/10/19 20:09:20;;;;;;;9.20;6.65;;;;;;;16.26;100.00;97673.97;10349430;28;20057;-61
2023/10/19 20:14:21;;;;;;;7.53;6.15;;;;;;;16.20;100.00;97658.78;10341787;28;20067;-59
2023/10/19 20:19:24;;;;;;;6.00;5.40;;;;;;;16.26;100.00;97657.06;10339507;28;20640;-59
2023/10/19 20:24:26;;;;;;;6.43;5.82;;;;;;;16.18;100.00;97654.66;10342646;28;20049;-59
2023/10/19 20:29:28;;;;;;;6.53;5.88;;;;;;;16.23;100.00;97669.06;10349881;28;20064;-59
2023/10/19 20:34:32;;;;;;;6.78;6.10;;;;;;;16.20;100.00;97680.25;10344417;28;21348;-58
2023/10/19 20:39:37;;;;;;;8.00;5.80;;;;;;;16.16;100.00;97660.25;10339273;28;20054;-59
2023/10/19 20:44:41;;;;;;;8.73;6.75;;;;;;;16.13;100.00;97667.94;10343833;28;20096;-60
2023/10/19 20:49:45;;;;;;;7.53;6.85;;;;;;;16.06;100.00;97657.25;10342263;28;20064;-59
2023/10/19 20:54:46;;;;;;;6.85;6.25;;;;;;;16.13;100.00;97647.28;10341304;28;20318;-58
2023/10/19 20:59:48;;;;;;;6.45;5.85;;;;;;;16.14;100.00;97627.47;10343726;28;20608;-60
2023/10/19 21:04:53;;;;;;;6.93;6.05;;;;;;;16.13;100.00;97636.53;10344688;28;20392;-59
2023/10/19 21:09:54;;;;;;;7.32;6.50;;;;;;;16.10;100.00;97610.16;10343915;28;20250;-59
2023/10/19 21:14:56;;;;;;;7.90;6.20;;;;;;;16.06;100.00;97604.44;10341109;28;20053;-59
2023/10/19 21:19:57;;;;;;;8.30;6.88;;;;;;;16.13;100.00;97609.72;10341782;28;20498;-58
2023/10/19 21:24:59;;;;;;;7.97;5.97;;;;;;;16.10;100.00;97604.78;10346569;28;20069;-58
2023/10/19 21:30:00;;;;;;;6.68;5.78;;;;;;;16.10;100.00;97594.06;10341042;28;20230;-58
2023/10/19 21:35:03;;;;;;;7.70;6.32;;;;;;;16.10;100.00;97571.78;10338744;28;20045;-58
2023/10/19 21:40:07;;;;;;;7.00;5.82;;;;;;;16.10;100.00;97577.97;10335833;28;20107;-58
2023/10/19 21:45:09;;;;;;;7.00;6.30;;;;;;;16.10;100.00;97588.69;10352535;28;20106;-59
2023/10/19 21:50:11;;;;;;;6.68;6.07;;;;;;;16.10;100.00;97572.59;10345214;28;20069;-58
2023/10/19 21:55:13;;;;;;;10.57;7.20;;;;;;;16.07;100.00;97554.25;10329173;28;20452;-58
2023/10/19 22:00:25;;;;;;;8.45;6.28;;;;;;;16.03;100.00;97535.13;10328721;28;20057;-59
2023/10/19 22:05:28;;;;;;;8.65;7.80;;;;;;;16.07;100.00;97533.59;10324382;28;20038;-58
2023/10/19 22:10:32;;;;;;;9.65;6.65;;;;;;;16.08;100.00;97518.34;10349944;28;20057;-59
2023/10/19 22:15:34;;;;;;;8.00;7.30;;;;;;;16.09;100.00;97519.97;10353678;28;20364;-58
2023/10/19 22:20:36;;;;;;;7.32;6.63;;;;;;;16.07;100.00;97514.81;10355678;28;20606;-59
2023/10/19 22:25:38;;;;;;;6.40;5.80;;;;;;;16.08;100.00;97510.31;10360971;28;20076;-58
2023/10/19 22:30:41;;;;;;;7.43;6.70;;;;;;;16.08;100.00;97496.88;10348960;28;20168;-59
2023/10/19 22:35:43;;;;;;;8.82;7.00;;;;;;;16.01;100.00;97488.09;10349584;28;20053;-58
2023/10/19 22:40:44;;;;;;;6.80;6.15;;;;;;;16.05;100.00;97500.03;10349151;28;21541;-58
2023/10/19 22:45:46;;;;;;;7.25;6.43;;;;;;;15.90;100.00;97455.63;10351776;28;20050;-58
2023/10/19 22:50:47;;;;;;;6.18;5.57;;;;;;;16.04;100.00;97461.63;10349438;28;20294;-58
2023/10/19 22:55:49;;;;;;;7.10;5.82;;;;;;;16.02;100.00;97438.78;10352331;28;20136;-58
2023/10/19 23:00:51;;;;;;;6.55;5.88;;;;;;;15.95;100.00;97460.31;10352514;28;20171;-58
2023/10/19 23:05:54;;;;;;;6.75;6.15;;;;;;;15.84;100.00;97453.84;10350372;28;20053;-58
2023/10/19 23:10:56;;;;;;;6.53;5.93;;;;;;;15.95;100.00;97451.44;10351059;28;21110;-58
2023/10/19 23:16:00;;;;;;;6.32;5.72;;;;;;;15.95;100.00;97425.44;10349083;28;20041;-58